Time;durP1;ratioP1;P1;durP2;ratioP2;P2;SDS_P1;SDS_P2;PMS_P1;PMS_P2;Temp;Humidity;BMP_temperature;BMP_pressure;BME280_temperature;BME280_humidity;BME280_pressure;Samples;Min_cycle;Max_cycle;Signal;HPM_P1;HPM_P2
2022/03/17 00:02:10;;;;;;;48.63;22.42;;;6.50;93.80;;;;;;5021898;28;20079;-68
2022/03/17 00:04:35;;;;;;;45.78;20.33;;;6.50;93.90;;;;;;5021600;28;20041;-67
2022/03/17 00:07:02;;;;;;;41.25;20.48;;;6.40;93.80;;;;;;5019762;28;20041;-69
2022/03/17 00:09:28;;;;;;;44.67;23.25;;;6.40;94.00;;;;;;5021366;28;20037;-69
2022/03/17 00:11:54;;;;;;;40.50;20.40;;;6.40;93.70;;;;;;5020035;28;20029;-76
2022/03/17 00:14:20;;;;;;;47.83;22.20;;;6.40;93.70;;;;;;5021267;28;20739;-68
2022/03/17 00:16:46;;;;;;;49.97;21.35;;;6.30;93.70;;;;;;5019941;28;20036;-66
2022/03/17 00:19:12;;;;;;;46.30;21.60;;;6.30;94.00;;;;;;5021080;28;20033;-66
2022/03/17 00:21:39;;;;;;;46.72;21.63;;;6.30;94.10;;;;;;5021317;28;20032;-68
2022/03/17 00:24:09;;;;;;;47.65;22.08;;;6.20;94.10;;;;;;5020355;28;20116;-68
2022/03/17 00:26:36;;;;;;;52.38;23.73;;;6.30;94.10;;;;;;5020523;28;20331;-68
2022/03/17 00:29:05;;;;;;;52.55;23.05;;;6.30;94.10;;;;;;5020438;28;20021;-68
2022/03/17 00:31:31;;;;;;;47.63;21.58;;;6.30;94.10;;;;;;5021889;28;20030;-69
2022/03/17 00:33:57;;;;;;;47.30;22.02;;;6.20;94.30;;;;;;5021027;28;20575;-69
2022/03/17 00:36:23;;;;;;;48.88;22.65;;;6.20;94.40;;;;;;5021051;28;20665;-66
2022/03/17 00:38:50;;;;;;;48.85;22.50;;;6.20;94.30;;;;;;5021278;28;20512;-65
2022/03/17 00:41:15;;;;;;;53.85;22.33;;;6.20;94.30;;;;;;5021603;28;20037;-67
2022/03/17 00:43:41;;;;;;;52.85;22.60;;;6.10;94.50;;;;;;5021961;28;20043;-66
2022/03/17 00:46:07;;;;;;;49.58;22.77;;;6.10;94.50;;;;;;5021283;28;20728;-66
2022/03/17 00:48:33;;;;;;;54.20;22.88;;;6.10;94.40;;;;;;5021290;28;20036;-66
2022/03/17 00:50:59;;;;;;;52.05;23.00;;;6.10;94.70;;;;;;5022085;28;20029;-66
2022/03/17 00:53:25;;;;;;;52.53;23.17;;;6.10;94.80;;;;;;5021398;28;20037;-66
2022/03/17 00:55:50;;;;;;;56.50;24.25;;;6.00;94.90;;;;;;5020788;28;20557;-66
2022/03/17 00:58:16;;;;;;;52.65;22.85;;;6.10;94.90;;;;;;5020777;28;20658;-69
2022/03/17 01:00:42;;;;;;;47.08;22.35;;;6.10;94.90;;;;;;5023405;28;20033;-69
2022/03/17 01:03:09;;;;;;;48.20;23.77;;;6.10;94.90;;;;;;5023414;28;20040;-66
2022/03/17 01:05:36;;;;;;;48.80;23.90;;;6.10;94.90;;;;;;5024828;28;20037;-66
2022/03/17 01:08:01;;;;;;;53.40;24.98;;;6.00;94.90;;;;;;5024878;28;20034;-66
2022/03/17 01:10:28;;;;;;;56.78;24.60;;;6.00;95.00;;;;;;5024958;28;20115;-66
2022/03/17 01:12:55;;;;;;;51.35;24.30;;;6.10;95.00;;;;;;5024719;28;20112;-68
2022/03/17 01:15:21;;;;;;;55.03;23.92;;;6.00;95.00;;;;;;5024917;28;20068;-68
2022/03/17 01:17:48;;;;;;;56.15;23.70;;;6.00;94.90;;;;;;5024296;28;20091;-69
2022/03/17 01:20:14;;;;;;;53.92;22.77;;;6.00;95.00;;;;;;5025039;28;20030;-66
2022/03/17 01:22:41;;;;;;;53.63;24.20;;;6.00;94.90;;;;;;5024078;28;20731;-69
2022/03/17 01:25:08;;;;;;;55.88;24.20;;;6.00;94.90;;;;;;5032721;28;20030;-66
2022/03/17 01:27:34;;;;;;;57.80;24.77;;;6.10;94.90;;;;;;5023509;28;20037;-66
2022/03/17 01:30:00;;;;;;;50.92;22.63;;;6.10;94.90;;;;;;5024596;28;20397;-66
2022/03/17 01:32:26;;;;;;;54.75;23.95;;;6.00;94.80;;;;;;5024661;28;20036;-66
2022/03/17 01:34:53;;;;;;;59.60;24.33;;;6.00;95.00;;;;;;5023831;28;20022;-66
2022/03/17 01:37:18;;;;;;;51.25;23.48;;;6.00;94.90;;;;;;5023789;28;20083;-69
2022/03/17 01:39:44;;;;;;;56.97;25.15;;;6.00;95.00;;;;;;5023931;28;20143;-69
2022/03/17 01:42:11;;;;;;;60.50;24.42;;;5.90;95.30;;;;;;5023779;28;20034;-66
2022/03/17 01:44:38;;;;;;;57.55;24.75;;;6.00;95.20;;;;;;5023139;28;20025;-66
2022/03/17 01:49:49;;;;;;;51.50;24.48;;;5.90;95.20;;;;;;5021738;28;20055;-68
2022/03/17 01:52:15;;;;;;;54.25;24.67;;;5.80;95.20;;;;;;5023913;28;20528;-66
2022/03/17 01:54:42;;;;;;;53.75;25.98;;;5.80;95.30;;;;;;5023005;28;20029;-69
2022/03/17 01:57:10;;;;;;;60.70;25.65;;;5.80;95.50;;;;;;5022876;28;20078;-68
2022/03/17 01:59:37;;;;;;;53.15;25.88;;;5.80;95.50;;;;;;5022012;28;20038;-68
2022/03/17 02:02:12;;;;;;;57.97;25.25;;;5.80;95.70;;;;;;5022991;28;20639;-68
2022/03/17 02:04:41;;;;;;;61.53;26.48;;;5.70;95.90;;;;;;5019856;28;20034;-68
2022/03/17 02:07:07;;;;;;;58.30;25.83;;;5.70;95.90;;;;;;5022163;28;20080;-69
2022/03/17 02:09:36;;;;;;;57.60;26.30;;;5.70;96.10;;;;;;5023426;28;20037;-69
2022/03/17 02:14:53;;;;;;;;;;;5.70;96.00;;;;;;5021549;28;20056;-66
2022/03/17 02:17:20;;;;;;;53.97;24.10;;;5.70;96.00;;;;;;5021181;28;19996;-69
2022/03/17 02:19:45;;;;;;;64.78;26.73;;;5.70;95.90;;;;;;5024073;28;20044;-67
2022/03/17 02:22:14;;;;;;;63.90;27.50;;;5.70;95.90;;;;;;5022781;28;20029;-69
2022/03/17 02:27:33;;;;;;;63.20;26.92;;;5.70;96.00;;;;;;5023279;28;20116;-66
2022/03/17 02:29:59;;;;;;;59.28;26.45;;;5.70;95.90;;;;;;5022683;28;20033;-69
2022/03/17 02:32:25;;;;;;;63.92;27.98;;;5.70;95.80;;;;;;5022790;28;20095;-69
2022/03/17 02:34:54;;;;;;;56.63;26.20;;;5.70;95.70;;;;;;5023768;28;20124;-69
2022/03/17 02:37:19;;;;;;;60.88;26.42;;;5.70;95.70;;;;;;5023193;28;20500;-69
2022/03/17 02:39:45;;;;;;;61.05;25.48;;;5.80;95.70;;;;;;5022920;28;20129;-66
2022/03/17 02:42:11;;;;;;;56.67;26.10;;;5.80;95.60;;;;;;5023701;28;20025;-68
2022/03/17 02:44:38;;;;;;;55.25;25.77;;;5.70;95.60;;;;;;5023658;28;20108;-69
2022/03/17 02:47:05;;;;;;;54.60;26.00;;;5.80;95.50;;;;;;5026173;28;20048;-68
2022/03/17 02:49:32;;;;;;;54.25;25.13;;;5.80;95.40;;;;;;5023073;28;20026;-69
2022/03/17 02:51:58;;;;;;;55.50;26.83;;;5.80;95.50;;;;;;5030931;28;20033;-68
2022/03/17 02:54:24;;;;;;;56.50;25.92;;;5.80;95.50;;;;;;5019700;28;20649;-67
2022/03/17 02:56:50;;;;;;;59.58;25.75;;;5.80;95.40;;;;;;5022534;28;20048;-69
2022/03/17 02:59:16;;;;;;;62.75;26.02;;;5.70;95.40;;;;;;5023229;28;20120;-68
2022/03/17 03:01:42;;;;;;;61.35;26.88;;;5.70;95.40;;;;;;5022747;28;20112;-69
2022/03/17 03:04:07;;;;;;;62.67;26.58;;;5.70;95.40;;;;;;5023189;28;20029;-68
2022/03/17 03:06:33;;;;;;;58.90;26.48;;;5.70;95.30;;;;;;5022811;28;20523;-68
2022/03/17 03:08:59;;;;;;;62.97;28.48;;;5.70;95.50;;;;;;5022698;28;20440;-68
2022/03/17 03:11:25;;;;;;;61.28;28.70;;;5.80;95.30;;;;;;5023017;28;20128;-66
2022/03/17 03:13:51;;;;;;;60.65;27.60;;;5.80;95.20;;;;;;5023078;28;20034;-68
2022/03/17 03:16:17;;;;;;;66.18;28.38;;;5.80;95.10;;;;;;5022701;28;20021;-69
2022/03/17 03:18:44;;;;;;;61.25;27.60;;;5.80;95.10;;;;;;5023415;28;20405;-66
2022/03/17 03:21:09;;;;;;;61.13;28.92;;;5.80;95.00;;;;;;5019891;28;20059;-69
2022/03/17 03:23:35;;;;;;;61.30;28.50;;;5.80;95.10;;;;;;5020148;28;20767;-68
2022/03/17 03:26:01;;;;;;;60.45;26.67;;;5.80;95.20;;;;;;5030007;28;20029;-67
2022/03/17 03:28:26;;;;;;;59.40;27.58;;;5.80;95.30;;;;;;5022387;28;20517;-68
2022/03/17 03:30:54;;;;;;;63.65;27.45;;;5.70;95.30;;;;;;5022747;28;20148;-66
2022/03/17 03:33:20;;;;;;;56.17;27.15;;;5.70;95.50;;;;;;5022039;28;20036;-66
2022/03/17 03:38:30;;;;;;;61.80;27.20;;;5.70;95.30;;;;;;5019608;28;20040;-66
2022/03/17 03:40:55;;;;;;;64.82;29.17;;;5.80;95.20;;;;;;5022204;28;20474;-65
2022/03/17 03:43:21;;;;;;;61.00;28.92;;;5.80;95.40;;;;;;5020811;28;20033;-68
2022/03/17 03:45:50;;;;;;;64.90;28.55;;;5.80;95.10;;;;;;5021849;28;20025;-68
2022/03/17 03:48:16;;;;;;;57.10;27.42;;;5.80;95.10;;;;;;5021609;28;20029;-69
2022/03/17 03:50:42;;;;;;;58.65;27.33;;;5.80;95.00;;;;;;5022345;28;20025;-69
2022/03/17 03:53:07;;;;;;;60.78;27.67;;;5.80;94.90;;;;;;5022028;28;20091;-69
2022/03/17 03:55:33;;;;;;;65.63;28.63;;;5.70;95.10;;;;;;5021894;28;20068;-68
2022/03/17 03:58:00;;;;;;;65.22;29.35;;;5.70;95.20;;;;;;5021902;28;20861;-68
2022/03/17 04:02:53;;;;;;;65.72;28.38;;;5.60;95.10;;;;;;5020218;28;20029;-67
2022/03/17 04:05:34;;;;;;;71.72;29.73;;;5.70;95.10;;;;;;5021821;28;20034;-69
2022/03/17 04:08:01;;;;;;;61.58;28.88;;;5.70;95.20;;;;;;5020252;28;20033;-69
2022/03/17 04:10:27;;;;;;;68.40;31.35;;;5.70;95.00;;;;;;5022032;28;20035;-68
2022/03/17 04:12:54;;;;;;;67.90;30.42;;;5.70;94.80;;;;;;5021772;28;20604;-66
2022/03/17 04:15:19;;;;;;;67.00;30.75;;;5.70;94.90;;;;;;5020882;28;20106;-66
2022/03/17 04:17:45;;;;;;;72.03;29.85;;;5.70;94.80;;;;;;5020806;28;20785;-69
2022/03/17 04:20:11;;;;;;;68.15;30.35;;;5.80;94.70;;;;;;5021515;28;20156;-66
2022/03/17 04:22:37;;;;;;;63.25;29.80;;;5.80;94.40;;;;;;5020808;28;20116;-66
2022/03/17 04:25:04;;;;;;;63.97;30.15;;;5.80;94.40;;;;;;5020135;28;20035;-66
2022/03/17 04:27:30;;;;;;;64.65;30.30;;;5.80;94.40;;;;;;5020402;28;20037;-66
2022/03/17 04:29:55;;;;;;;64.57;30.15;;;5.80;94.30;;;;;;5020655;28;20040;-69
2022/03/17 04:32:21;;;;;;;63.97;30.50;;;5.80;94.30;;;;;;5020331;28;20092;-69
2022/03/17 04:34:47;;;;;;;62.90;28.48;;;5.80;94.20;;;;;;5020275;28;20022;-68
2022/03/17 04:37:14;;;;;;;58.83;29.08;;;5.70;94.20;;;;;;5020511;28;20374;-69
2022/03/17 04:39:39;;;;;;;62.33;28.80;;;5.80;94.30;;;;;;5021026;28;20072;-66
2022/03/17 04:42:05;;;;;;;62.40;28.63;;;5.70;94.20;;;;;;5020404;28;20462;-66
2022/03/17 04:44:31;;;;;;;65.22;31.02;;;5.80;94.20;;;;;;5020698;28;20033;-68
2022/03/17 04:46:57;;;;;;;66.55;30.42;;;5.80;94.10;;;;;;5019700;28;20037;-66
2022/03/17 04:49:23;;;;;;;63.70;29.13;;;5.80;94.10;;;;;;5020797;28;20394;-66
2022/03/17 04:51:49;;;;;;;63.42;30.10;;;5.80;94.00;;;;;;5020711;28;20087;-69
2022/03/17 04:54:15;;;;;;;66.28;31.08;;;5.80;93.90;;;;;;5020504;28;20087;-69
2022/03/17 04:56:41;;;;;;;57.35;27.95;;;5.70;94.00;;;;;;5016873;28;20048;-69
2022/03/17 04:59:06;;;;;;;58.13;27.67;;;5.70;93.80;;;;;;5020805;28;20033;-66
2022/03/17 05:01:32;;;;;;;63.85;29.67;;;5.70;94.00;;;;;;5021559;28;20103;-67
2022/03/17 05:03:58;;;;;;;69.32;31.52;;;5.70;94.00;;;;;;5020758;28;20029;-69
2022/03/17 05:06:24;;;;;;;65.57;31.45;;;5.70;93.90;;;;;;5020379;28;20124;-67
2022/03/17 05:08:49;;;;;;;63.83;30.77;;;5.70;93.90;;;;;;5020175;28;20029;-66
2022/03/17 05:11:15;;;;;;;61.35;28.60;;;5.70;93.80;;;;;;5020724;28;20044;-66
2022/03/17 05:13:43;;;;;;;62.08;29.58;;;5.70;94.00;;;;;;5019061;28;20026;-67
2022/03/17 05:16:09;;;;;;;64.25;31.00;;;5.60;94.00;;;;;;5018730;28;20025;-69
2022/03/17 05:18:35;;;;;;;60.50;29.30;;;5.60;93.90;;;;;;5020971;28;20037;-68
2022/03/17 05:21:01;;;;;;;69.88;32.28;;;5.60;94.00;;;;;;5023804;28;20044;-69
2022/03/17 05:23:27;;;;;;;64.03;30.25;;;5.60;94.00;;;;;;5020693;28;20048;-69
2022/03/17 05:25:53;;;;;;;65.57;30.52;;;5.60;94.10;;;;;;5020060;28;20029;-69
2022/03/17 05:28:19;;;;;;;61.85;30.90;;;5.50;94.10;;;;;;5020660;28;20025;-69
2022/03/17 05:30:46;;;;;;;66.50;31.45;;;5.60;94.10;;;;;;5020060;28;20532;-66
2022/03/17 05:33:12;;;;;;;64.43;31.13;;;5.60;94.00;;;;;;5021185;28;20029;-69
2022/03/17 05:35:42;;;;;;;72.03;31.92;;;5.60;93.90;;;;;;5022001;28;20025;-69
2022/03/17 05:38:08;;;;;;;72.85;31.88;;;5.60;93.90;;;;;;5020095;28;20064;-69
2022/03/17 05:40:36;;;;;;;64.32;32.42;;;5.60;93.90;;;;;;5021135;28;20030;-66
2022/03/17 05:43:06;;;;;;;61.13;29.38;;;5.50;93.90;;;;;;5020278;28;20077;-66
2022/03/17 05:45:32;;;;;;;66.22;31.25;;;5.60;93.80;;;;;;5020628;28;20405;-66
2022/03/17 05:47:59;;;;;;;67.15;30.48;;;5.60;93.70;;;;;;5023598;28;20025;-69
2022/03/17 05:50:29;;;;;;;71.07;33.05;;;5.60;93.60;;;;;;5024685;28;20501;-66
2022/03/17 05:52:55;;;;;;;68.65;30.00;;;5.60;93.50;;;;;;5023847;28;20025;-68
2022/03/17 05:55:23;;;;;;;63.13;30.85;;;5.60;93.60;;;;;;5024203;28;20117;-66
2022/03/17 05:57:50;;;;;;;68.88;31.92;;;5.60;93.70;;;;;;5025211;28;20034;-67
2022/03/17 06:00:23;;;;;;;68.57;31.85;;;5.70;93.50;;;;;;5020020;28;20149;-68
2022/03/17 06:02:50;;;;;;;69.00;31.10;;;5.80;93.50;;;;;;5024154;28;20044;-67
2022/03/17 06:05:15;;;;;;;67.10;31.77;;;5.80;93.10;;;;;;5026201;28;20033;-68
2022/03/17 06:07:43;;;;;;;67.05;32.13;;;5.80;93.00;;;;;;5021383;28;20531;-67
2022/03/17 06:10:13;;;;;;;67.10;32.83;;;5.90;92.90;;;;;;5022393;28;20101;-67
2022/03/17 06:12:39;;;;;;;64.50;30.27;;;6.00;92.70;;;;;;5024092;28;20056;-67
2022/03/17 06:15:07;;;;;;;63.10;31.08;;;6.10;92.40;;;;;;5025512;28;20029;-68
2022/03/17 06:17:43;;;;;;;65.80;31.27;;;6.10;92.30;;;;;;5023762;28;20065;-67
2022/03/17 06:20:12;;;;;;;67.65;32.75;;;6.20;92.20;;;;;;5021982;28;20553;-67
2022/03/17 06:22:43;;;;;;;64.32;31.35;;;6.20;92.10;;;;;;5023469;28;20447;-67
2022/03/17 06:25:11;;;;;;;67.47;32.13;;;6.30;91.90;;;;;;5024411;28;20766;-68
2022/03/17 06:27:37;;;;;;;66.53;32.13;;;6.40;91.70;;;;;;5023328;28;20487;-68
2022/03/17 06:30:08;;;;;;;64.35;32.33;;;6.40;91.50;;;;;;5023196;28;20619;-68
2022/03/17 06:32:34;;;;;;;62.33;30.05;;;6.50;91.50;;;;;;5023429;28;20029;-67
2022/03/17 06:35:01;;;;;;;65.72;31.08;;;6.60;91.20;;;;;;5023627;28;20036;-68
2022/03/17 06:37:27;;;;;;;70.82;33.03;;;6.60;91.30;;;;;;5025189;28;20040;-68
2022/03/17 06:39:55;;;;;;;67.13;33.70;;;6.70;91.40;;;;;;5023148;28;20075;-67
2022/03/17 06:42:21;;;;;;;64.70;32.55;;;6.90;91.00;;;;;;5019901;28;20494;-67
2022/03/17 06:44:47;;;;;;;69.65;33.53;;;7.00;90.60;;;;;;5029801;28;20033;-68
2022/03/17 06:47:13;;;;;;;73.38;32.45;;;7.10;90.30;;;;;;5022136;28;20040;-68
2022/03/17 06:49:39;;;;;;;73.15;34.05;;;7.10;90.10;;;;;;5022707;28;20048;-68
2022/03/17 06:52:05;;;;;;;71.40;33.47;;;7.10;89.80;;;;;;5022280;28;20029;-68
2022/03/17 06:54:30;;;;;;;59.22;31.40;;;7.10;90.00;;;;;;5023098;28;20021;-68
2022/03/17 06:56:56;;;;;;;59.75;30.58;;;7.00;89.90;;;;;;5034622;28;20446;-68
2022/03/17 06:59:22;;;;;;;61.63;31.42;;;7.00;89.70;;;;;;5023046;28;20489;-68
2022/03/17 07:01:48;;;;;;;63.58;30.65;;;7.00;89.60;;;;;;5022335;28;20493;-68
2022/03/17 07:04:13;;;;;;;66.60;33.40;;;7.00;89.90;;;;;;5022343;28;20048;-68
2022/03/17 07:06:39;;;;;;;62.78;33.00;;;7.00;89.80;;;;;;5021710;28;20874;-68
2022/03/17 07:09:05;;;;;;;63.63;31.58;;;7.10;89.60;;;;;;5022007;28;20026;-68
2022/03/17 07:11:30;;;;;;;68.32;34.35;;;7.10;89.60;;;;;;5022479;28;20493;-68
2022/03/17 07:13:56;;;;;;;66.53;32.65;;;7.20;89.00;;;;;;5021731;28;20567;-68
2022/03/17 07:16:22;;;;;;;62.72;31.45;;;7.30;88.40;;;;;;5021796;28;20359;-67
2022/03/17 07:18:49;;;;;;;62.08;31.20;;;7.20;88.50;;;;;;5022074;28;20057;-68
2022/03/17 07:21:15;;;;;;;67.85;33.45;;;7.40;88.50;;;;;;5021515;28;20029;-68
2022/03/17 07:23:41;;;;;;;67.30;32.83;;;7.40;87.50;;;;;;5021057;28;20117;-68
2022/03/17 07:26:07;;;;;;;63.67;33.17;;;7.40;87.30;;;;;;5021563;28;20021;-68
2022/03/17 07:28:33;;;;;;;58.55;31.40;;;7.40;87.80;;;;;;5021808;28;20687;-68
2022/03/17 07:30:59;;;;;;;66.95;33.20;;;7.50;87.40;;;;;;5021582;28;20044;-67
2022/03/17 07:33:24;;;;;;;63.60;32.95;;;7.80;86.70;;;;;;5021887;28;20041;-68
2022/03/17 07:35:50;;;;;;;62.47;33.15;;;7.80;85.50;;;;;;5020731;28;20029;-67
2022/03/17 07:38:16;;;;;;;65.22;33.22;;;7.90;86.00;;;;;;5021536;28;20102;-68
2022/03/17 07:40:42;;;;;;;60.75;32.08;;;8.00;85.40;;;;;;5021346;28;20576;-68
2022/03/17 07:43:08;;;;;;;64.55;34.25;;;8.00;85.10;;;;;;5020732;28;20044;-68
2022/03/17 07:45:37;;;;;;;66.32;33.53;;;8.10;85.30;;;;;;5021260;28;20091;-68
2022/03/17 07:48:35;;;;;;;59.22;30.67;;;8.10;84.10;;;;;;5001540;28;20049;-68
2022/03/17 07:51:10;;;;;;;66.95;31.65;;;8.10;84.40;;;;;;5015526;28;20482;-68
2022/03/17 07:53:37;;;;;;;57.03;29.77;;;8.20;84.30;;;;;;5024552;28;20633;-68
2022/03/17 07:56:04;;;;;;;68.50;34.17;;;8.20;84.10;;;;;;5020919;28;20029;-68
2022/03/17 07:58:32;;;;;;;66.53;34.35;;;8.30;83.50;;;;;;5021076;28;20056;-68
2022/03/17 08:01:00;;;;;;;64.32;32.97;;;8.30;83.30;;;;;;5021757;28;20730;-66
2022/03/17 08:03:26;;;;;;;64.28;32.05;;;8.30;83.80;;;;;;5021005;28;20037;-66
2022/03/17 08:05:52;;;;;;;62.42;32.92;;;8.40;83.60;;;;;;5021061;28;20029;-66
2022/03/17 08:08:19;;;;;;;64.25;34.38;;;8.50;83.10;;;;;;5021769;28;20044;-66
2022/03/17 08:10:45;;;;;;;58.97;32.30;;;8.60;83.30;;;;;;5018272;28;20117;-66
2022/03/17 08:13:12;;;;;;;61.95;32.35;;;8.60;81.80;;;;;;5021971;28;20918;-67
2022/03/17 08:15:39;;;;;;;62.80;32.13;;;8.80;82.20;;;;;;5022037;28;20029;-66
2022/03/17 08:18:06;;;;;;;59.40;31.17;;;8.80;81.20;;;;;;5023937;28;20050;-66
2022/03/17 08:20:35;;;;;;;62.17;34.05;;;8.90;81.00;;;;;;5021421;28;20026;-67
2022/03/17 08:23:01;;;;;;;59.33;31.83;;;8.90;80.70;;;;;;5021767;28;20449;-66
2022/03/17 08:25:27;;;;;;;63.17;32.05;;;8.90;80.60;;;;;;5021134;28;20033;-66
2022/03/17 08:27:54;;;;;;;57.72;31.67;;;9.00;80.60;;;;;;5021089;28;20033;-66
2022/03/17 08:30:20;;;;;;;66.70;34.00;;;9.00;80.90;;;;;;5021386;28;20033;-66
2022/03/17 08:32:46;;;;;;;64.13;33.20;;;9.00;80.20;;;;;;5020011;28;20036;-66
2022/03/17 08:35:14;;;;;;;62.45;33.38;;;9.00;79.80;;;;;;5019315;28;20025;-68
2022/03/17 08:37:41;;;;;;;63.10;32.65;;;9.00;80.00;;;;;;5020112;28;20041;-66
2022/03/17 08:40:08;;;;;;;60.88;32.88;;;9.00;80.60;;;;;;5019960;28;20044;-66
2022/03/17 08:42:34;;;;;;;58.33;32.22;;;9.00;80.20;;;;;;5019868;28;20084;-66
2022/03/17 08:45:00;;;;;;;61.83;33.05;;;9.00;80.20;;;;;;5020148;28;20116;-67
2022/03/17 08:50:10;;;;;;;58.50;30.55;;;9.00;80.10;;;;;;5020956;28;20474;-67
2022/03/17 08:52:36;;;;;;;60.67;32.08;;;9.00;80.10;;;;;;5021854;28;20032;-66
2022/03/17 08:55:02;;;;;;;62.17;32.35;;;9.10;80.40;;;;;;5020270;28;20509;-67
2022/03/17 08:57:28;;;;;;;57.90;31.95;;;9.20;79.40;;;;;;5019618;28;20040;-67
2022/03/17 08:59:54;;;;;;;58.42;32.05;;;9.10;79.50;;;;;;5020045;28;20026;-67
2022/03/17 09:02:20;;;;;;;65.35;34.47;;;9.10;79.50;;;;;;5019790;28;20029;-67
2022/03/17 09:04:45;;;;;;;65.88;34.50;;;9.20;79.70;;;;;;5016939;28;20112;-67
2022/03/17 09:07:11;;;;;;;64.43;34.35;;;9.40;79.10;;;;;;5020241;28;20786;-67
2022/03/17 09:09:38;;;;;;;64.47;33.45;;;9.50;78.50;;;;;;5020053;28;20021;-66
2022/03/17 09:12:08;;;;;;;58.65;32.10;;;9.50;77.50;;;;;;5022128;28;20029;-68
2022/03/17 09:14:38;;;;;;;61.25;33.40;;;9.40;78.30;;;;;;5020974;28;20041;-67
2022/03/17 09:17:04;;;;;;;64.85;32.72;;;9.60;78.00;;;;;;5020790;28;20042;-68
2022/03/17 09:19:31;;;;;;;56.28;32.22;;;9.70;77.20;;;;;;5019011;28;20087;-67
2022/03/17 09:21:57;;;;;;;58.38;31.70;;;9.90;76.20;;;;;;5022910;28;20041;-67
2022/03/17 09:24:23;;;;;;;62.85;32.58;;;9.80;76.10;;;;;;5023844;28;20026;-67
2022/03/17 09:26:50;;;;;;;60.97;32.72;;;9.70;76.00;;;;;;5023751;28;20146;-68
2022/03/17 09:29:16;;;;;;;54.40;30.83;;;9.70;76.80;;;;;;5026735;28;20810;-72
2022/03/17 09:31:42;;;;;;;67.25;33.90;;;9.80;76.20;;;;;;5024341;28;20025;-66
2022/03/17 09:34:09;;;;;;;57.20;31.85;;;9.90;75.00;;;;;;5023778;28;20099;-67
2022/03/17 09:36:35;;;;;;;59.63;32.55;;;9.90;74.60;;;;;;5023791;28;20025;-66
2022/03/17 09:41:45;;;;;;;63.60;33.85;;;10.10;75.10;;;;;;4999558;28;21017;-65
2022/03/17 09:44:11;;;;;;;60.53;33.88;;;10.10;74.00;;;;;;4982641;28;20118;-65
2022/03/17 09:46:41;;;;;;;59.60;33.58;;;10.00;74.70;;;;;;4984536;28;20089;-65
2022/03/17 09:49:07;;;;;;;58.78;32.45;;;10.10;74.60;;;;;;4976523;28;20034;-64
2022/03/17 09:51:34;;;;;;;62.22;32.05;;;10.10;74.20;;;;;;4978745;28;20090;-64
2022/03/17 09:54:00;;;;;;;61.08;32.55;;;10.00;74.50;;;;;;4980126;28;20035;-68
2022/03/17 09:56:27;;;;;;;54.58;31.20;;;10.00;74.50;;;;;;4978760;28;20061;-67
2022/03/17 09:58:55;;;;;;;56.25;32.15;;;10.10;74.10;;;;;;4981930;28;20030;-69
2022/03/17 10:01:22;;;;;;;64.60;34.20;;;10.20;73.90;;;;;;4982903;28;20026;-65
2022/03/17 10:03:48;;;;;;;60.58;33.17;;;10.30;73.60;;;;;;4984062;28;20165;-65
2022/03/17 10:06:17;;;;;;;58.28;32.78;;;10.40;73.20;;;;;;4983831;28;20037;-65
2022/03/17 10:08:45;;;;;;;58.65;31.55;;;10.60;72.70;;;;;;4978888;28;20037;-64
2022/03/17 10:11:16;;;;;;;59.50;33.00;;;10.70;72.00;;;;;;4979363;28;20141;-65
2022/03/17 10:13:46;;;;;;;60.65;33.78;;;10.70;71.30;;;;;;4985024;28;20042;-65
2022/03/17 10:16:18;;;;;;;55.35;33.17;;;10.90;70.90;;;;;;4982003;28;20040;-64
2022/03/17 10:18:46;;;;;;;62.42;32.22;;;10.80;71.20;;;;;;4974650;28;20560;-64
2022/03/17 10:21:24;;;;;;;60.78;33.65;;;10.70;71.30;;;;;;4976396;28;20092;-64
2022/03/17 10:23:56;;;;;;;59.83;31.52;;;10.70;71.80;;;;;;4979341;28;20034;-64
2022/03/17 10:26:50;;;;;;;58.30;32.97;;;10.80;71.90;;;;;;4979060;28;20125;-63
2022/03/17 10:29:25;;;;;;;59.92;33.25;;;10.90;72.00;;;;;;4981668;28;20050;-64
2022/03/17 10:31:52;;;;;;;61.90;33.85;;;10.70;71.00;;;;;;4973729;28;20130;-65
2022/03/17 10:34:19;;;;;;;62.58;34.40;;;10.70;71.90;;;;;;4979537;28;20026;-65
2022/03/17 10:36:45;;;;;;;62.33;33.42;;;10.90;71.60;;;;;;4978566;28;20076;-64
2022/03/17 10:39:12;;;;;;;55.97;32.60;;;11.10;70.90;;;;;;4985839;28;20058;-64
2022/03/17 10:41:46;;;;;;;57.25;32.50;;;11.20;69.80;;;;;;4977270;28;20041;-65
2022/03/17 10:44:15;;;;;;;61.70;31.83;;;11.40;69.50;;;;;;4983395;28;20038;-65
2022/03/17 10:47:01;;;;;;;63.72;34.20;;;11.60;68.80;;;;;;4978876;28;20034;-65
2022/03/17 10:49:30;;;;;;;57.80;33.58;;;11.70;68.10;;;;;;4976715;28;20034;-65
2022/03/17 10:51:57;;;;;;;53.70;32.08;;;11.70;67.50;;;;;;4973946;28;20034;-65
2022/03/17 10:54:23;;;;;;;62.30;34.55;;;11.60;68.20;;;;;;4983282;28;20044;-69
2022/03/17 10:57:09;;;;;;;66.28;34.10;;;11.60;68.10;;;;;;4979280;28;20034;-67
2022/03/17 10:59:44;;;;;;;54.38;31.98;;;11.50;68.50;;;;;;4982709;28;20565;-66
2022/03/17 11:02:12;;;;;;;55.17;33.25;;;11.40;68.90;;;;;;4978494;28;20065;-67
2022/03/17 11:04:39;;;;;;;56.92;31.92;;;11.70;67.90;;;;;;4984414;28;20023;-67
2022/03/17 11:07:08;;;;;;;57.10;33.10;;;11.90;67.60;;;;;;4981031;28;20034;-66
2022/03/17 11:09:38;;;;;;;54.58;31.23;;;12.20;66.50;;;;;;4983547;28;20022;-66
2022/03/17 11:12:07;;;;;;;54.90;32.80;;;12.40;65.40;;;;;;4977963;28;20034;-66
2022/03/17 11:14:33;;;;;;;55.17;31.63;;;12.50;64.80;;;;;;4981445;28;20088;-67
2022/03/17 11:17:03;;;;;;;61.55;32.70;;;12.70;63.60;;;;;;4984732;28;20031;-67
2022/03/17 11:19:30;;;;;;;49.28;29.65;;;12.80;63.60;;;;;;4980607;28;20030;-66
2022/03/17 11:22:08;;;;;;;60.10;35.80;;;12.90;63.20;;;;;;5002126;28;20041;-68
2022/03/17 11:24:34;;;;;;;113.00;50.22;;;13.00;62.40;;;;;;4987105;28;20113;-66
2022/03/17 11:27:10;;;;;;;70.15;38.85;;;12.90;62.40;;;;;;4980647;28;20430;-66
2022/03/17 11:29:47;;;;;;;;;;;13.00;62.50;;;;;;4978746;28;20431;-66
2022/03/17 11:32:29;;;;;;;58.80;34.30;;;13.00;62.50;;;;;;4976812;28;19914;-68
2022/03/17 11:35:18;;;;;;;49.47;30.17;;;13.20;62.60;;;;;;4974478;28;20110;-67
2022/03/17 11:37:43;;;;;;;67.78;36.83;;;13.30;61.10;;;;;;4981835;28;20041;-67
2022/03/17 11:40:10;;;;;;;60.50;34.25;;;13.50;61.10;;;;;;4984800;28;20026;-67
2022/03/17 11:42:46;;;;;;;61.22;32.60;;;13.60;61.10;;;;;;4981107;28;20053;-67
2022/03/17 11:45:15;;;;;;;52.88;32.30;;;13.80;59.60;;;;;;4973376;28;20121;-67
2022/03/17 11:47:55;;;;;;;57.60;32.95;;;13.90;58.90;;;;;;4985411;28;20871;-66
2022/03/17 11:50:36;;;;;;;50.42;30.95;;;13.80;59.10;;;;;;4977237;28;20133;-67
2022/03/17 11:53:12;;;;;;;53.72;30.35;;;13.70;59.70;;;;;;4980949;28;20062;-66
2022/03/17 11:55:56;;;;;;;55.65;30.35;;;13.70;59.30;;;;;;4974474;28;20084;-66
2022/03/17 11:58:39;;;;;;;58.42;33.00;;;13.60;59.60;;;;;;4973821;28;20439;-65
2022/03/17 12:01:22;;;;;;;72.63;40.35;;;13.70;59.80;;;;;;4980630;28;20565;-67
2022/03/17 12:03:54;;;;;;;82.35;42.35;;;13.70;59.70;;;;;;4987207;28;20033;-69
2022/03/17 12:06:22;;;;;;;62.55;35.55;;;13.50;60.40;;;;;;4971636;28;20043;-67
2022/03/17 12:09:01;;;;;;;55.20;31.90;;;13.50;60.40;;;;;;4984052;28;20031;-66
2022/03/17 12:11:36;;;;;;;47.65;31.00;;;13.60;60.30;;;;;;4988801;28;20026;-67
2022/03/17 12:14:13;;;;;;;50.90;30.40;;;13.50;59.70;;;;;;4978339;28;20138;-66
2022/03/17 12:16:46;;;;;;;43.00;27.88;;;13.60;60.20;;;;;;4978764;28;20053;-66
2022/03/17 12:19:30;;;;;;;56.35;32.08;;;13.60;59.70;;;;;;4979049;28;20030;-65
2022/03/17 12:22:01;;;;;;;53.80;30.63;;;13.60;59.40;;;;;;4976777;28;20801;-66
2022/03/17 12:24:42;;;;;;;84.25;43.83;;;13.60;59.50;;;;;;4983823;28;20034;-67
2022/03/17 12:27:13;;;;;;;69.10;38.15;;;13.50;60.20;;;;;;4976736;28;20803;-67
2022/03/17 12:29:40;;;;;;;96.38;50.40;;;13.40;60.30;;;;;;4973105;28;20104;-67
2022/03/17 12:32:15;;;;;;;62.22;36.58;;;13.20;61.00;;;;;;4980377;28;20018;-67
2022/03/17 12:34:49;;;;;;;60.38;34.58;;;13.10;61.30;;;;;;4976689;28;20447;-66
2022/03/17 12:37:17;;;;;;;73.25;37.85;;;13.20;61.20;;;;;;4980767;28;20042;-66
2022/03/17 12:39:54;;;;;;;67.53;36.25;;;13.30;60.70;;;;;;4986878;28;20567;-68
2022/03/17 12:42:21;;;;;;;56.05;32.38;;;13.20;61.80;;;;;;4975016;28;20026;-70
2022/03/17 12:44:56;;;;;;;57.20;32.25;;;13.00;61.20;;;;;;4980020;28;20034;-66
2022/03/17 12:47:24;;;;;;;63.63;34.92;;;13.00;61.80;;;;;;4983988;28;20121;-66
2022/03/17 12:49:51;;;;;;;65.93;34.58;;;13.10;61.40;;;;;;4984315;28;20030;-66
2022/03/17 12:52:24;;;;;;;65.82;36.05;;;13.20;61.40;;;;;;4979994;28;20057;-67
2022/03/17 12:54:55;;;;;;;56.55;33.83;;;13.30;61.40;;;;;;4981596;28;20058;-66
2022/03/17 12:57:23;;;;;;;66.28;37.80;;;13.30;60.60;;;;;;4992407;28;20062;-67
2022/03/17 12:59:49;;;;;;;57.70;33.30;;;13.30;61.10;;;;;;4981135;28;20030;-66